createdAt,value
2022-10-06T00:01:54.878Z,98009.09
2022-10-06T00:04:40.427Z,98010.69
2022-10-06T00:07:25.908Z,98011.63
2022-10-06T00:10:11.137Z,98017.66
2022-10-06T00:12:57.392Z,98017.63
2022-10-06T00:15:42.936Z,98013.38
2022-10-06T00:18:29.759Z,98015.78
2022-10-06T00:21:15.731Z,98014.91
2022-10-06T00:24:00.950Z,98018.06
2022-10-06T00:26:47.348Z,98017.00
2022-10-06T00:29:32.741Z,98011.72
2022-10-06T00:32:17.999Z,98013.97
2022-10-06T00:35:04.150Z,98020.59
2022-10-06T00:37:49.759Z,98016.09
2022-10-06T00:40:35.299Z,98018.88
2022-10-06T00:43:50.865Z,98025.38
2022-10-06T00:46:49.623Z,98022.50
2022-10-06T00:49:38.244Z,98021.78
2022-10-06T00:52:27.446Z,98029.38
2022-10-06T00:55:13.172Z,98027.59
2022-10-06T00:58:00.052Z,98026.28
2022-10-06T01:00:45.865Z,98028.84
2022-10-06T01:03:37.166Z,98023.91
2022-10-06T01:06:23.577Z,98022.25
2022-10-06T01:09:08.885Z,98030.56
2022-10-06T01:11:57.747Z,98027.78
2022-10-06T01:14:43.603Z,98018.28
2022-10-06T01:17:31.858Z,98025.53
2022-10-06T01:20:19.561Z,98025.81
2022-10-06T01:23:06.943Z,98022.84
2022-10-06T01:25:53.402Z,98027.19
2022-10-06T01:28:39.846Z,98022.53
2022-10-06T01:31:25.937Z,98029.53
2022-10-06T01:34:11.882Z,98023.88
2022-10-06T01:36:57.512Z,98026.34
2022-10-06T01:39:45.380Z,98021.69
2022-10-06T01:42:33.062Z,98031.31
2022-10-06T01:45:21.150Z,98026.44
2022-10-06T01:48:07.034Z,98034.59
2022-10-06T01:50:53.317Z,98033.78
2022-10-06T01:53:38.999Z,98021.38
2022-10-06T01:56:24.245Z,98028.09
2022-10-06T01:59:09.690Z,98034.22
2022-10-06T02:01:55.088Z,98036.66
2022-10-06T02:04:40.515Z,98034.63
2022-10-06T02:07:25.891Z,98037.66
2022-10-06T02:10:11.133Z,98040.09
2022-10-06T02:12:57.211Z,98041.94
2022-10-06T02:15:42.767Z,98044.78
2022-10-06T02:18:28.705Z,98042.53
2022-10-06T02:21:16.985Z,98055.75
2022-10-06T02:24:02.557Z,98047.22
2022-10-06T02:26:48.037Z,98059.03
2022-10-06T02:29:33.487Z,98053.13
2022-10-06T02:32:19.417Z,98055.75
2022-10-06T02:35:06.687Z,98056.16
2022-10-06T02:37:52.403Z,98063.06
2022-10-06T02:40:39.215Z,98064.50
2022-10-06T02:43:28.921Z,98072.25
2022-10-06T02:46:15.492Z,98075.94
2022-10-06T02:49:07.752Z,98070.63
2022-10-06T02:51:54.174Z,98065.72
2022-10-06T02:54:39.538Z,98070.84
2022-10-06T02:57:24.930Z,98078.78
2022-10-06T03:00:11.632Z,98074.50
2022-10-06T03:02:59.324Z,98084.47
2022-10-06T03:05:44.791Z,98092.03
2022-10-06T03:08:31.529Z,98090.22
2022-10-06T03:11:19.550Z,98093.88
2022-10-06T03:14:06.130Z,98098.16
2022-10-06T03:16:56.958Z,98101.81
2022-10-06T03:19:45.056Z,98099.75
2022-10-06T03:22:30.538Z,98103.03
2022-10-06T03:25:16.534Z,98112.81
2022-10-06T03:28:01.846Z,98123.59
2022-10-06T03:30:47.795Z,98121.97
2022-10-06T03:33:34.869Z,98126.44
2022-10-06T03:36:22.664Z,98132.16
2022-10-06T03:39:08.379Z,98135.41
2022-10-06T03:41:54.336Z,98138.88
2022-10-06T03:44:39.753Z,98147.03
2022-10-06T03:47:25.842Z,98148.84
2022-10-06T03:50:11.127Z,98151.91
2022-10-06T03:52:56.650Z,98156.59
2022-10-06T03:55:42.042Z,98166.34
2022-10-06T03:58:29.050Z,98164.28
2022-10-06T04:01:26.520Z,98174.28
2022-10-06T04:04:13.503Z,98173.88
2022-10-06T04:07:00.817Z,98175.91
2022-10-06T04:09:46.148Z,98172.63
2022-10-06T04:12:32.156Z,98177.50
2022-10-06T04:15:17.662Z,98179.13
2022-10-06T04:18:03.071Z,98183.78
2022-10-06T04:20:48.508Z,98186.22
2022-10-06T04:23:34.775Z,98194.53
2022-10-06T04:26:22.144Z,98188.03
2022-10-06T04:29:10.062Z,98193.28
2022-10-06T04:31:55.518Z,98202.59
2022-10-06T04:34:46.202Z,98193.44
2022-10-06T04:37:31.632Z,98197.69
2022-10-06T04:40:17.632Z,98193.41
2022-10-06T04:43:03.945Z,98198.47
2022-10-06T04:45:56.859Z,98207.81
2022-10-06T04:48:43.014Z,98197.41
2022-10-06T04:51:29.845Z,98199.63
2022-10-06T04:54:19.076Z,98201.66
2022-10-06T04:57:06.333Z,98205.28
2022-10-06T05:00:14.735Z,98204.88
2022-10-06T05:03:02.680Z,98208.69
2022-10-06T05:05:48.816Z,98210.09
2022-10-06T05:08:35.276Z,98211.31
2022-10-06T05:11:25.798Z,98216.59
2022-10-06T05:14:12.374Z,98214.16
2022-10-06T05:17:01.857Z,98225.53
2022-10-06T05:19:48.555Z,98227.81
2022-10-06T05:22:34.057Z,98237.59
2022-10-06T05:25:19.479Z,98232.09
2022-10-06T05:28:04.876Z,98228.06
2022-10-06T05:31:10.888Z,98239.69
2022-10-06T05:33:58.199Z,98239.28
2022-10-06T05:36:44.934Z,98255.59
2022-10-06T05:39:30.797Z,98244.84
2022-10-06T05:42:17.247Z,98258.66
2022-10-06T05:45:02.929Z,98272.13
2022-10-06T05:47:48.444Z,98266.06
2022-10-06T05:50:33.702Z,98272.84
2022-10-06T05:53:18.990Z,98278.34
2022-10-06T05:56:15.997Z,98281.25
2022-10-06T05:59:02.572Z,98294.72
2022-10-06T06:01:48.853Z,98301.66
2022-10-06T06:04:45.439Z,98299.28
2022-10-06T06:07:31.859Z,98306.66
2022-10-06T06:10:17.671Z,98304.44
2022-10-06T06:13:04.172Z,98306.09
2022-10-06T06:16:14.173Z,98306.31
2022-10-06T06:19:00.823Z,98297.41
2022-10-06T06:21:46.975Z,98304.97
2022-10-06T06:24:32.888Z,98319.03
2022-10-06T06:27:18.190Z,98327.41
2022-10-06T06:30:04.278Z,98336.59
2022-10-06T06:32:50.084Z,98339.06
2022-10-06T06:35:36.830Z,98347.63
2022-10-06T06:38:22.790Z,98351.53
2022-10-06T06:41:24.992Z,98354.56
2022-10-06T06:44:16.266Z,98358.03
2022-10-06T06:47:09.641Z,98363.53
2022-10-06T06:49:55.117Z,98359.28
2022-10-06T06:52:43.980Z,98367.75
2022-10-06T06:55:32.831Z,98366.19
2022-10-06T06:58:20.625Z,98369.94
2022-10-06T07:01:13.759Z,98376.94
2022-10-06T07:03:59.914Z,98380.94
2022-10-06T07:06:58.865Z,98389.09
2022-10-06T07:09:48.371Z,98392.22
2022-10-06T07:12:35.952Z,98386.38
2022-10-06T07:15:39.968Z,98404.31
2022-10-06T07:18:43.958Z,98401.88
2022-10-06T07:21:48.034Z,98406.09
2022-10-06T07:24:51.966Z,98404.31
2022-10-06T07:27:46.954Z,98417.16
2022-10-06T07:30:39.878Z,98418.69
2022-10-06T07:33:32.835Z,98414.91
2022-10-06T07:36:22.455Z,98419.78
2022-10-06T07:39:10.557Z,98413.56
2022-10-06T07:41:56.631Z,98416.34
2022-10-06T07:44:43.091Z,98424.50
2022-10-06T07:47:28.215Z,98429.97
2022-10-06T07:50:15.007Z,98434.41
2022-10-06T07:53:08.753Z,98433.50
2022-10-06T07:56:05.195Z,98436.28
2022-10-06T07:58:53.749Z,98443.03
2022-10-06T08:01:39.333Z,98449.56
2022-10-06T08:04:24.500Z,98447.81
2022-10-06T08:07:10.302Z,98454.47
2022-10-06T08:09:55.972Z,98449.38
2022-10-06T08:12:41.597Z,98454.75
2022-10-06T08:15:27.104Z,98459.53
2022-10-06T08:18:33.843Z,98456.53
2022-10-06T08:21:20.818Z,98465.59
2022-10-06T08:24:06.255Z,98465.84
2022-10-06T08:26:51.538Z,98474.34
2022-10-06T08:29:36.818Z,98484.44
2022-10-06T08:32:22.730Z,98478.97
2022-10-06T08:35:08.418Z,98483.38
2022-10-06T08:37:53.678Z,98478.72
2022-10-06T08:40:43.282Z,98488.72
2022-10-06T08:43:30.461Z,98495.00
2022-10-06T08:46:21.004Z,98485.47
2022-10-06T08:49:18.297Z,98496.03
2022-10-06T08:52:15.902Z,98488.13
2022-10-06T08:55:20.685Z,98491.69
2022-10-06T08:58:43.786Z,98495.31
2022-10-06T09:01:39.020Z,98486.91
2022-10-06T09:04:29.370Z,98486.75
2022-10-06T09:07:23.125Z,98497.91
2022-10-06T09:10:43.287Z,98497.09
2022-10-06T09:13:36.262Z,98501.25
2022-10-06T09:16:30.211Z,98501.94
2022-10-06T09:19:33.793Z,98495.03
2022-10-06T09:22:22.496Z,98501.06
2022-10-06T09:25:21.846Z,98497.91
2022-10-06T09:28:15.683Z,98498.47
2022-10-06T09:31:03.449Z,98498.47
2022-10-06T09:33:53.182Z,98497.41
2022-10-06T09:37:01.520Z,98490.53
2022-10-06T09:39:49.556Z,98498.09
2022-10-06T09:42:35.384Z,98498.66
2022-10-06T09:45:25.898Z,98499.47
2022-10-06T09:48:26.019Z,98493.38
2022-10-06T09:51:17.593Z,98497.78
2022-10-06T09:54:14.865Z,98505.44
2022-10-06T09:57:20.092Z,98510.16
2022-10-06T10:00:27.674Z,98504.22
2022-10-06T10:03:13.399Z,98507.38
2022-10-06T10:06:02.219Z,98514.31
2022-10-06T10:08:47.967Z,98518.28
2022-10-06T10:11:51.932Z,98517.94
2022-10-06T10:14:38.456Z,98514.25
2022-10-06T10:17:32.420Z,98517.47
2022-10-06T10:20:40.089Z,98523.47
2022-10-06T10:23:38.892Z,98519.00
2022-10-06T10:26:30.738Z,98526.22
2022-10-06T10:29:22.394Z,98522.69
2022-10-06T10:32:11.750Z,98536.03
2022-10-06T10:35:19.432Z,98533.50
2022-10-06T10:38:14.699Z,98535.88
2022-10-06T10:41:12.447Z,98545.81
2022-10-06T10:44:28.094Z,98540.91
2022-10-06T10:47:28.129Z,98541.97
2022-10-06T10:50:16.933Z,98543.06
2022-10-06T10:53:26.815Z,98534.50
2022-10-06T10:56:16.290Z,98542.56
2022-10-06T10:59:25.279Z,98539.88
2022-10-06T11:02:20.947Z,98536.72
2022-10-06T11:05:19.367Z,98549.13
2022-10-06T11:08:38.398Z,98547.56
2022-10-06T11:11:49.842Z,98545.94
2022-10-06T11:14:56.135Z,98550.66
2022-10-06T11:17:47.100Z,98549.88
2022-10-06T11:20:58.623Z,98545.31
2022-10-06T11:24:07.287Z,98545.81
2022-10-06T11:27:15.293Z,98548.16
2022-10-06T11:30:05.275Z,98549.03
2022-10-06T11:33:01.570Z,98547.25
2022-10-06T11:35:48.787Z,98548.06
2022-10-06T11:38:47.579Z,98548.63
2022-10-06T11:41:49.383Z,98550.25
2022-10-06T11:44:42.281Z,98556.69
2022-10-06T11:48:10.371Z,98549.34
2022-10-06T11:51:05.452Z,98552.81
2022-10-06T11:53:55.736Z,98549.53
2022-10-06T11:56:41.323Z,98552.22
2022-10-06T11:59:28.687Z,98544.91
2022-10-06T12:02:32.298Z,98553.78
2022-10-06T12:05:54.734Z,98558.66
2022-10-06T12:08:40.396Z,98554.91
2022-10-06T12:11:40.152Z,98555.16
2022-10-06T12:18:04.649Z,98562.06
2022-10-06T12:21:10.595Z,98558.25
2022-10-06T12:24:03.499Z,98553.94
2022-10-06T12:27:15.639Z,98554.03
2022-10-06T12:30:22.567Z,98558.34
2022-10-06T12:33:16.850Z,98559.06
2022-10-06T12:36:03.760Z,98556.88
2022-10-06T12:39:05.349Z,98552.44
2022-10-06T12:42:19.102Z,98556.22
2022-10-06T12:45:16.370Z,98569.38
2022-10-06T12:48:04.649Z,98558.13
2022-10-06T12:50:58.134Z,98559.97
2022-10-06T12:54:01.346Z,98551.19
2022-10-06T12:57:01.961Z,98549.31
2022-10-06T12:59:49.400Z,98551.44
2022-10-06T13:02:34.998Z,98545.25
2022-10-06T13:05:20.347Z,98547.47
2022-10-06T13:08:20.061Z,98549.63
2022-10-06T13:11:25.312Z,98542.97
2022-10-06T13:14:14.071Z,98546.22
2022-10-06T13:17:03.152Z,98542.81
2022-10-06T13:19:48.857Z,98542.88
2022-10-06T13:22:35.177Z,98531.19
2022-10-06T13:25:20.684Z,98541.75
2022-10-06T13:28:06.074Z,98538.63
2022-10-06T13:31:13.980Z,98533.72
2022-10-06T13:34:03.987Z,98542.53
2022-10-06T13:36:52.341Z,98541.47
2022-10-06T13:39:38.674Z,98547.44
2022-10-06T13:42:24.851Z,98543.44
2022-10-06T13:45:14.402Z,98539.44
2022-10-06T13:48:18.862Z,98547.97
2022-10-06T13:51:04.757Z,98549.28
2022-10-06T13:53:51.555Z,98542.78
2022-10-06T13:56:39.927Z,98547.53
2022-10-06T13:59:28.637Z,98541.53
2022-10-06T14:02:25.755Z,98546.41
2022-10-06T14:05:44.895Z,98545.91
2022-10-06T14:08:30.644Z,98543.47
2022-10-06T14:11:23.288Z,98543.91
2022-10-06T14:14:15.816Z,98545.09
2022-10-06T14:17:01.489Z,98547.00
2022-10-06T14:19:47.405Z,98553.13
2022-10-06T14:22:35.298Z,98553.72
2022-10-06T14:25:22.257Z,98547.47
2022-10-06T14:28:07.990Z,98547.88
2022-10-06T14:30:54.250Z,98550.66
2022-10-06T14:33:39.868Z,98548.88
2022-10-06T14:36:29.526Z,98557.22
2022-10-06T14:39:15.941Z,98561.59
2022-10-06T14:42:01.310Z,98560.31
2022-10-06T14:44:48.168Z,98554.56
2022-10-06T14:47:33.443Z,98560.59
2022-10-06T14:50:18.752Z,98552.63
2022-10-06T14:53:04.577Z,98564.28
2022-10-06T14:55:49.881Z,98559.81
2022-10-06T14:58:39.607Z,98553.69
2022-10-06T15:01:26.231Z,98556.19
2022-10-06T15:04:15.384Z,98558.78
2022-10-06T15:07:19.450Z,98559.75
2022-10-06T15:10:05.920Z,98561.06
2022-10-06T15:12:52.346Z,98551.63
2022-10-06T15:15:38.110Z,98557.72
2022-10-06T15:18:23.696Z,98553.56
2022-10-06T15:21:10.424Z,98562.00
2022-10-06T15:23:57.589Z,98553.88
2022-10-06T15:27:02.542Z,98551.66
2022-10-06T15:29:48.051Z,98560.72
2022-10-06T15:32:33.247Z,98564.72
2022-10-06T15:35:18.709Z,98569.72
2022-10-06T15:38:04.160Z,98556.59
2022-10-06T15:40:49.376Z,98554.16
2022-10-06T15:43:53.365Z,98552.78
2022-10-06T15:46:42.162Z,98554.28
2022-10-06T15:49:33.032Z,98556.28
2022-10-06T15:52:18.929Z,98555.03
2022-10-06T15:55:04.571Z,98562.63
2022-10-06T15:57:50.118Z,98558.31
2022-10-06T16:00:35.503Z,98566.34
2022-10-06T16:03:40.769Z,98573.22
2022-10-06T16:06:45.671Z,98564.06
2022-10-06T16:09:41.983Z,98560.09
2022-10-06T16:12:28.882Z,98568.81
2022-10-06T16:15:14.281Z,98571.47
2022-10-06T16:17:59.711Z,98576.19
2022-10-06T16:20:45.135Z,98577.16
2022-10-06T16:23:30.625Z,98577.94
2022-10-06T16:26:16.090Z,98578.50
2022-10-06T16:29:01.846Z,98573.91
2022-10-06T16:31:47.680Z,98583.94
2022-10-06T16:34:33.340Z,98585.13
2022-10-06T16:37:18.675Z,98584.25
2022-10-06T16:40:04.598Z,98581.53
2022-10-06T16:42:51.449Z,98592.53
2022-10-06T16:45:37.244Z,98590.81
2022-10-06T16:48:27.056Z,98593.41
2022-10-06T16:51:18.319Z,98601.25
2022-10-06T16:54:14.538Z,98595.00
2022-10-06T16:57:06.558Z,98587.94
2022-10-06T16:59:52.224Z,98595.22
2022-10-06T17:02:38.675Z,98602.88
2022-10-06T17:05:24.060Z,98606.78
2022-10-06T17:08:09.501Z,98603.56
2022-10-06T17:11:07.622Z,98597.00
2022-10-06T17:13:54.460Z,98604.44
2022-10-06T17:16:43.047Z,98607.53
2022-10-06T17:19:29.968Z,98605.31
2022-10-06T17:22:15.846Z,98601.66
2022-10-06T17:25:01.192Z,98597.38
2022-10-06T17:27:46.725Z,98607.38
2022-10-06T17:30:32.131Z,98609.41
2022-10-06T17:33:17.532Z,98606.53
2022-10-06T17:36:17.493Z,98603.66
2022-10-06T17:39:04.844Z,98606.91
2022-10-06T17:41:52.794Z,98612.22
2022-10-06T17:44:38.087Z,98622.53
2022-10-06T17:47:23.425Z,98612.47
2022-10-06T17:50:08.874Z,98614.06
2022-10-06T17:52:54.437Z,98608.53
2022-10-06T17:55:40.291Z,98614.63
2022-10-06T17:58:25.740Z,98618.84
2022-10-06T18:01:18.651Z,98611.03
2022-10-06T18:04:32.456Z,98617.16
2022-10-06T18:07:18.158Z,98619.19
2022-10-06T18:10:23.280Z,98616.06
2022-10-06T18:13:08.997Z,98616.06
2022-10-06T18:16:14.529Z,98621.25
2022-10-06T18:19:03.007Z,98615.94
2022-10-06T18:21:48.600Z,98617.91
2022-10-06T18:24:34.105Z,98613.72
2022-10-06T18:27:20.191Z,98616.94
2022-10-06T18:30:06.332Z,98619.78
2022-10-06T18:36:15.404Z,98624.19
2022-10-06T18:39:01.294Z,98620.41
2022-10-06T18:42:05.974Z,98618.72
2022-10-06T18:45:10.265Z,98623.56
2022-10-06T18:48:14.442Z,98624.66
2022-10-06T18:51:01.267Z,98627.53
2022-10-06T18:53:46.653Z,98630.91
2022-10-06T18:56:34.521Z,98629.25
2022-10-06T18:59:24.343Z,98632.91
2022-10-06T19:02:10.540Z,98631.66
2022-10-06T19:04:56.187Z,98638.03
2022-10-06T19:07:41.864Z,98630.56
2022-10-06T19:10:27.436Z,98640.13
2022-10-06T19:13:12.845Z,98637.41
2022-10-06T19:16:00.094Z,98636.94
2022-10-06T19:18:48.670Z,98641.31
2022-10-06T19:21:37.008Z,98638.75
2022-10-06T19:24:22.271Z,98636.28
2022-10-06T19:27:13.994Z,98627.72
2022-10-06T19:29:59.220Z,98637.22
2022-10-06T19:32:44.764Z,98634.63
2022-10-06T19:35:30.115Z,98635.53
2022-10-06T19:38:15.489Z,98631.25
2022-10-06T19:41:21.687Z,98631.59
2022-10-06T19:44:06.982Z,98635.59
2022-10-06T19:46:54.242Z,98631.84
2022-10-06T19:49:39.682Z,98634.50
2022-10-06T19:52:25.352Z,98634.50
2022-10-06T19:55:11.200Z,98637.69
2022-10-06T19:57:56.673Z,98642.84
2022-10-06T20:00:42.249Z,98630.59
2022-10-06T20:03:28.184Z,98639.41
2022-10-06T20:06:15.308Z,98649.81
2022-10-06T20:09:06.968Z,98650.19
2022-10-06T20:11:52.462Z,98654.50
2022-10-06T20:14:38.017Z,98648.94
2022-10-06T20:18:12.121Z,98648.94
2022-10-06T20:20:58.794Z,98647.97
2022-10-06T20:24:18.237Z,98651.59
2022-10-06T20:27:03.718Z,98649.28
2022-10-06T20:29:49.303Z,98653.44
2022-10-06T20:32:35.141Z,98644.44
2022-10-06T20:35:20.999Z,98638.88
2022-10-06T20:38:08.919Z,98647.78
2022-10-06T20:40:54.308Z,98640.53
2022-10-06T20:43:40.337Z,98643.34
2022-10-06T20:46:31.960Z,98639.22
2022-10-06T20:49:17.657Z,98635.09
2022-10-06T20:52:04.832Z,98645.16
2022-10-06T20:54:51.305Z,98641.53
2022-10-06T20:57:36.960Z,98642.22
2022-10-06T21:00:25.066Z,98636.66
2022-10-06T21:03:10.449Z,98646.91
2022-10-06T21:05:55.896Z,98640.97
2022-10-06T21:08:44.073Z,98640.97
2022-10-06T21:11:29.763Z,98639.81
2022-10-06T21:14:16.201Z,98653.19
2022-10-06T21:17:01.950Z,98647.91
2022-10-06T21:19:47.505Z,98643.78
2022-10-06T21:22:32.817Z,98639.84
2022-10-06T21:25:18.550Z,98641.81
2022-10-06T21:28:05.120Z,98641.66
2022-10-06T21:30:51.662Z,98636.22
2022-10-06T21:33:40.885Z,98644.13
2022-10-06T21:36:29.244Z,98633.44
2022-10-06T21:39:14.548Z,98626.53
2022-10-06T21:42:00.034Z,98625.91
2022-10-06T21:44:45.437Z,98621.63
2022-10-06T21:47:30.832Z,98622.97
2022-10-06T21:50:16.342Z,98620.66
2022-10-06T21:53:01.925Z,98613.56
2022-10-06T21:55:47.652Z,98614.22
2022-10-06T21:58:33.782Z,98610.59
2022-10-06T22:01:21.510Z,98609.94
2022-10-06T22:04:07.514Z,98615.41
2022-10-06T22:06:53.119Z,98621.84
2022-10-06T22:09:38.526Z,98617.59
2022-10-06T22:12:23.948Z,98610.38
2022-10-06T22:15:09.863Z,98612.00
2022-10-06T22:17:54.952Z,98607.38
2022-10-06T22:20:40.538Z,98610.84
2022-10-06T22:23:26.349Z,98607.06
2022-10-06T22:26:14.207Z,98607.38
2022-10-06T22:29:00.586Z,98604.63
2022-10-06T22:31:47.352Z,98599.69
2022-10-06T22:34:33.343Z,98596.09
2022-10-06T22:37:18.800Z,98587.22
2022-10-06T22:40:07.607Z,98595.41
2022-10-06T22:42:53.626Z,98590.66
2022-10-06T22:45:39.404Z,98583.09
2022-10-06T22:48:25.523Z,98582.13
2022-10-06T22:51:11.138Z,98580.97
2022-10-06T22:53:58.807Z,98582.94
2022-10-06T22:56:44.572Z,98573.75
2022-10-06T22:59:30.037Z,98574.72
2022-10-06T23:02:15.490Z,98572.94
2022-10-06T23:05:01.001Z,98565.19
2022-10-06T23:07:47.072Z,98570.13
2022-10-06T23:10:36.350Z,98577.66
2022-10-06T23:13:21.977Z,98568.31
2022-10-06T23:16:09.824Z,98560.41
2022-10-06T23:18:55.628Z,98559.44
2022-10-06T23:21:41.331Z,98564.88
2022-10-06T23:24:26.710Z,98557.59
2022-10-06T23:27:12.846Z,98554.84
2022-10-06T23:29:58.500Z,98558.94
2022-10-06T23:32:44.066Z,98556.81
2022-10-06T23:35:29.835Z,98556.47
2022-10-06T23:38:15.497Z,98557.94
2022-10-06T23:41:00.739Z,98551.38
2022-10-06T23:43:46.336Z,98555.66
2022-10-06T23:46:31.847Z,98551.38
2022-10-06T23:49:17.365Z,98549.91
2022-10-06T23:52:03.742Z,98542.34
2022-10-06T23:54:49.706Z,98546.47
2022-10-06T23:57:35.122Z,98550.72
